Time,TemperatureF,DewpointF,PressureIn,WindDirection,WindDirectionDegrees,WindSpeedMPH,WindSpeedGustMPH,Humidity,HourlyPrecipIn,Conditions,Clouds,dailyrainin,SolarRadiationWatts/m^2,SoftwareType,DateUTC
2013-01-28 00:00:00,31.9,28.0,29.80,WSW,252,0.0,3.0,86,0.00,,,0.07,0,weatherlink.com 1.10,2013-01-28 07:00:00,
2013-01-28 00:15:00,31.6,29.0,29.80,South,185,3.0,4.0,89,0.00,,,0.00,0,weatherlink.com 1.10,2013-01-28 07:15:00,
2013-01-28 00:30:00,30.9,29.0,29.79,North,360,1.0,3.0,92,0.00,,,0.00,0,weatherlink.com 1.10,2013-01-28 07:30:00,
2013-01-28 00:46:00,31.1,29.0,29.79,North,360,1.0,6.0,92,0.00,,,0.00,0,weatherlink.com 1.10,2013-01-28 07:46:00,
2013-01-28 01:01:00,31.5,29.0,29.78,North,360,1.0,4.0,90,0.00,,,0.00,0,weatherlink.com 1.10,2013-01-28 08:01:00,
2013-01-28 01:16:00,31.7,29.0,29.78,WNW,284,0.0,8.0,88,0.00,,,0.00,0,weatherlink.com 1.10,2013-01-28 08:16:00,
2013-01-28 01:32:00,31.9,29.0,29.78,WNW,292,2.0,6.0,88,0.00,,,0.00,0,weatherlink.com 1.10,2013-01-28 08:32:00,
2013-01-28 01:46:00,31.8,29.0,29.77,WNW,288,2.0,6.0,88,0.00,,,0.00,0,weatherlink.com 1.10,2013-01-28 08:46:00,
2013-01-28 02:01:00,31.7,28.0,29.77,WSW,248,2.0,6.0,87,0.00,,,0.00,0,weatherlink.com 1.10,2013-01-28 09:01:00,
2013-01-28 02:16:00,31.7,28.0,29.77,SW,221,5.0,8.0,87,0.00,,,0.00,0,weatherlink.com 1.10,2013-01-28 09:16:00,
2013-01-28 02:31:00,31.5,28.0,29.77,WNW,302,0.0,9.0,87,0.00,,,0.00,0,weatherlink.com 1.10,2013-01-28 09:31:00,
2013-01-28 02:46:00,31.9,29.0,29.77,WSW,249,1.0,7.0,87,0.00,,,0.00,0,weatherlink.com 1.10,2013-01-28 09:46:00,
2013-01-28 03:01:00,32.1,28.0,29.76,WNW,298,2.0,6.0,86,0.00,,,0.00,0,weatherlink.com 1.10,2013-01-28 10:01:00,
2013-01-28 03:17:00,32.0,28.0,29.76,West,271,0.0,6.0,85,0.00,,,0.00,0,weatherlink.com 1.10,2013-01-28 10:17:00,
2013-01-28 03:32:00,31.9,29.0,29.76,West,277,1.0,4.0,87,0.00,,,0.00,0,weatherlink.com 1.10,2013-01-28 10:32:00,
2013-01-28 03:47:00,32.1,28.0,29.75,WSW,256,1.0,5.0,85,0.00,,,0.00,0,weatherlink.com 1.10,2013-01-28 10:47:00,
2013-01-28 04:02:00,32.0,28.0,29.75,North,360,1.0,5.0,86,0.00,,,0.00,0,weatherlink.com 1.10,2013-01-28 11:02:00,
2013-01-28 04:17:00,31.8,28.0,29.75,North,360,0.0,4.0,85,0.00,,,0.00,0,weatherlink.com 1.10,2013-01-28 11:17:00,
2013-01-28 04:32:00,31.8,28.0,29.75,NW,312,4.0,9.0,84,0.00,,,0.00,0,weatherlink.com 1.10,2013-01-28 11:32:00,
2013-01-28 04:47:00,31.8,27.0,29.74,NW,306,2.0,7.0,82,0.00,,,0.00,0,weatherlink.com 1.10,2013-01-28 11:47:00,
2013-01-28 05:02:00,31.5,27.0,29.74,West,277,0.0,3.0,84,0.00,,,0.00,0,weatherlink.com 1.10,2013-01-28 12:02:00,
2013-01-28 05:17:00,31.3,27.0,29.73,WNW,298,0.0,2.0,84,0.00,,,0.00,0,weatherlink.com 1.10,2013-01-28 12:17:00,
2013-01-28 05:33:00,32.0,27.0,29.72,North,360,0.0,8.0,81,0.00,,,0.00,0,weatherlink.com 1.10,2013-01-28 12:33:00,
2013-01-28 05:49:00,32.0,27.0,29.72,North,360,0.0,4.0,81,0.00,,,0.00,0,weatherlink.com 1.10,2013-01-28 12:49:00,
2013-01-28 06:03:00,32.1,27.0,29.72,North,360,1.0,5.0,80,0.00,,,0.00,0,weatherlink.com 1.10,2013-01-28 13:03:00,
2013-01-28 06:18:00,32.0,27.0,29.71,North,360,0.0,6.0,81,0.00,,,0.00,0,weatherlink.com 1.10,2013-01-28 13:18:00,
2013-01-28 06:33:00,32.2,27.0,29.72,North,360,1.0,7.0,80,0.00,,,0.00,0,weatherlink.com 1.10,2013-01-28 13:33:00,
2013-01-28 06:48:00,32.2,26.0,29.71,North,360,0.0,7.0,79,0.00,,,0.00,0,weatherlink.com 1.10,2013-01-28 13:48:00,
2013-01-28 07:04:00,31.9,25.0,29.71,North,360,2.0,7.0,77,0.00,,,0.00,0,weatherlink.com 1.10,2013-01-28 14:04:00,
2013-01-28 07:18:00,32.0,26.0,29.70,North,360,1.0,7.0,77,0.00,,,0.00,7,weatherlink.com 1.10,2013-01-28 14:18:00,
2013-01-28 07:33:00,32.1,26.0,29.70,North,360,3.0,17.0,77,0.00,,,0.00,11,weatherlink.com 1.10,2013-01-28 14:33:00,
2013-01-28 07:50:00,32.3,25.0,29.70,North,360,3.0,9.0,75,0.00,,,0.00,21,weatherlink.com 1.10,2013-01-28 14:50:00,
2013-01-28 08:04:00,32.4,26.0,29.70,North,360,3.0,9.0,77,0.00,,,0.00,26,weatherlink.com 1.10,2013-01-28 15:04:00,
2013-01-28 08:20:00,32.5,26.0,29.70,North,360,4.0,10.0,76,0.00,,,0.00,39,weatherlink.com 1.10,2013-01-28 15:20:00,
2013-01-28 08:34:00,32.7,26.0,29.69,North,360,3.0,11.0,76,0.00,,,0.00,28,weatherlink.com 1.10,2013-01-28 15:34:00,
2013-01-28 15:08:00,31.7,27.0,29.59,North,360,4.0,10.0,83,0.00,,,0.00,313,weatherlink.com 1.10,2013-01-28 22:08:00,
2013-01-28 15:22:00,32.2,27.0,29.59,North,360,4.0,14.0,80,0.00,,,0.00,163,weatherlink.com 1.10,2013-01-28 22:22:00,
2013-01-28 15:37:00,32.0,26.0,29.58,North,360,1.0,8.0,79,0.00,,,0.00,116,weatherlink.com 1.10,2013-01-28 22:37:00,
2013-01-28 15:52:00,32.7,26.0,29.57,North,360,2.0,8.0,76,0.00,,,0.00,135,weatherlink.com 1.10,2013-01-28 22:52:00,
2013-01-28 16:07:00,32.3,25.0,29.57,North,360,11.0,11.0,74,0.00,,,0.00,33,weatherlink.com 1.10,2013-01-28 23:07:00,
2013-01-28 16:22:00,31.0,26.0,29.57,North,360,3.0,13.0,81,0.00,,,0.00,18,weatherlink.com 1.10,2013-01-28 23:22:00,
2013-01-28 16:37:00,28.8,26.0,29.59,SW,227,3.0,6.0,90,0.00,,,0.00,5,weatherlink.com 1.10,2013-01-28 23:37:00,
2013-01-28 16:52:00,27.9,26.0,29.59,NW,313,2.0,6.0,93,0.00,,,0.00,7,weatherlink.com 1.10,2013-01-28 23:52:00,
2013-01-28 17:07:00,27.8,26.0,29.58,West,262,0.0,7.0,93,0.00,,,0.00,0,weatherlink.com 1.10,2013-01-29 00:07:00,
2013-01-28 17:22:00,27.8,26.0,29.59,West,263,2.0,3.0,94,0.00,,,0.00,0,weatherlink.com 1.10,2013-01-29 00:22:00,
2013-01-28 17:37:00,27.9,26.0,29.59,WSW,249,1.0,4.0,94,0.00,,,0.00,0,weatherlink.com 1.10,2013-01-29 00:37:00,
2013-01-28 17:52:00,27.5,26.0,29.59,WSW,246,1.0,5.0,94,0.00,,,0.00,0,weatherlink.com 1.10,2013-01-29 00:52:00,
2013-01-28 18:07:00,27.2,26.0,29.61,WSW,254,1.0,10.0,94,0.00,,,0.00,0,weatherlink.com 1.10,2013-01-29 01:07:00,
2013-01-28 18:22:00,26.4,25.0,29.61,WNW,284,1.0,4.0,93,0.00,,,0.00,0,weatherlink.com 1.10,2013-01-29 01:22:00,
2013-01-28 18:37:00,26.2,25.0,29.60,WNW,294,0.0,5.0,93,0.00,,,0.00,0,weatherlink.com 1.10,2013-01-29 01:37:00,
2013-01-28 18:52:00,25.9,24.0,29.63,SW,226,1.0,5.0,93,0.00,,,0.00,0,weatherlink.com 1.10,2013-01-29 01:52:00,
2013-01-28 19:07:00,25.5,24.0,29.63,WSW,248,3.0,10.0,93,0.00,,,0.00,0,weatherlink.com 1.10,2013-01-29 02:07:00,
2013-01-28 19:22:00,24.9,23.0,29.64,WSW,239,1.0,4.0,93,0.00,,,0.00,0,weatherlink.com 1.10,2013-01-29 02:22:00,
2013-01-28 19:37:00,24.5,23.0,29.63,West,261,2.0,3.0,93,0.00,,,0.00,0,weatherlink.com 1.10,2013-01-29 02:37:00,
2013-01-28 19:52:00,24.3,23.0,29.64,SW,229,0.0,5.0,93,0.00,,,0.00,0,weatherlink.com 1.10,2013-01-29 02:52:00,
2013-01-28 20:07:00,24.1,22.0,29.63,North,355,1.0,3.0,93,0.00,,,0.00,0,weatherlink.com 1.10,2013-01-29 03:07:00,
2013-01-28 20:22:00,24.1,22.0,29.63,WSW,238,1.0,4.0,93,0.00,,,0.00,0,weatherlink.com 1.10,2013-01-29 03:22:00,
2013-01-28 20:37:00,23.9,22.0,29.63,SW,214,2.0,6.0,93,0.00,,,0.00,0,weatherlink.com 1.10,2013-01-29 03:37:00,
2013-01-28 20:52:00,23.5,22.0,29.63,SW,220,1.0,6.0,93,0.00,,,0.00,0,weatherlink.com 1.10,2013-01-29 03:52:00,
2013-01-28 21:07:00,23.1,21.0,29.65,SSW,202,2.0,6.0,93,0.00,,,0.00,0,weatherlink.com 1.10,2013-01-29 04:07:00,
2013-01-28 21:22:00,22.9,21.0,29.63,West,273,3.0,8.0,93,0.00,,,0.00,0,weatherlink.com 1.10,2013-01-29 04:22:00,
2013-01-28 21:38:00,22.6,21.0,29.64,North,350,1.0,5.0,93,0.00,,,0.00,0,weatherlink.com 1.10,2013-01-29 04:38:00,
2013-01-28 21:53:00,22.6,21.0,29.63,SW,231,4.0,6.0,93,0.00,,,0.00,0,weatherlink.com 1.10,2013-01-29 04:53:00,
2013-01-28 22:08:00,22.0,20.0,29.62,West,278,0.0,8.0,93,0.00,,,0.00,0,weatherlink.com 1.10,2013-01-29 05:08:00,
2013-01-28 22:23:00,21.6,20.0,29.63,NNE,15,1.0,6.0,92,0.00,,,0.00,0,weatherlink.com 1.10,2013-01-29 05:23:00,
2013-01-28 22:38:00,21.2,19.0,29.63,WSW,244,0.0,3.0,92,0.00,,,0.00,0,weatherlink.com 1.10,2013-01-29 05:38:00,
2013-01-28 22:53:00,20.7,19.0,29.63,West,265,1.0,5.0,92,0.00,,,0.00,0,weatherlink.com 1.10,2013-01-29 05:53:00,
2013-01-28 23:08:00,20.5,19.0,29.62,West,263,0.0,2.0,92,0.00,,,0.00,0,weatherlink.com 1.10,2013-01-29 06:08:00,
2013-01-28 23:23:00,20.4,19.0,29.62,NNW,333,1.0,1.0,92,0.00,,,0.00,0,weatherlink.com 1.10,2013-01-29 06:23:00,
2013-01-28 23:38:00,20.3,18.0,29.61,WNW,286,0.0,2.0,92,0.00,,,0.00,0,weatherlink.com 1.10,2013-01-29 06:38:00,
2013-01-28 23:53:00,20.1,18.0,29.60,WSW,249,0.0,2.0,91,0.00,,,0.00,0,weatherlink.com 1.10,2013-01-29 06:53:00,